createdAt,value
2017-10-31T00:00:19.351Z,1.72
2017-10-31T00:02:46.833Z,1.74
2017-10-31T00:05:14.289Z,1.79
2017-10-31T00:07:41.753Z,1.87
2017-10-31T00:10:09.190Z,1.81
2017-10-31T00:12:36.670Z,1.78
2017-10-31T00:15:04.116Z,1.61
2017-10-31T00:17:31.653Z,1.61
2017-10-31T00:19:59.114Z,1.71
2017-10-31T00:22:26.642Z,1.63
2017-10-31T00:24:54.120Z,1.67
2017-10-31T00:27:21.555Z,1.68
2017-10-31T00:29:49.019Z,1.82
2017-10-31T00:32:16.474Z,1.57
2017-10-31T00:34:43.930Z,1.36
2017-10-31T00:37:11.372Z,1.56
2017-10-31T00:39:38.967Z,1.72
2017-10-31T00:42:06.401Z,1.70
2017-10-31T00:44:33.865Z,1.57
2017-10-31T00:47:01.312Z,1.70
2017-10-31T00:49:28.805Z,1.67
2017-10-31T00:51:56.238Z,1.61
2017-10-31T00:54:23.686Z,1.55
2017-10-31T00:56:51.118Z,1.47
2017-10-31T00:59:18.581Z,1.48
2017-10-31T01:01:46.024Z,1.46
2017-10-31T01:04:13.495Z,1.48
2017-10-31T01:06:40.939Z,1.47
2017-10-31T01:09:08.410Z,1.46
2017-10-31T01:11:35.852Z,1.47
2017-10-31T01:14:03.328Z,1.44
2017-10-31T01:16:30.762Z,1.54
2017-10-31T01:18:58.231Z,1.56
2017-10-31T01:21:25.682Z,1.34
2017-10-31T01:23:53.122Z,1.33
2017-10-31T01:26:20.570Z,1.23
2017-10-31T01:28:48.002Z,1.32
2017-10-31T01:31:15.530Z,1.38
2017-10-31T01:33:42.967Z,1.42
2017-10-31T01:36:10.543Z,1.55
2017-10-31T01:38:37.991Z,1.22
2017-10-31T01:41:05.446Z,1.33
2017-10-31T01:43:32.877Z,1.31
2017-10-31T01:46:00.339Z,1.36
2017-10-31T01:48:27.834Z,1.26
2017-10-31T01:50:55.296Z,1.13
2017-10-31T01:53:22.747Z,1.16
2017-10-31T01:55:50.213Z,1.15
2017-10-31T01:58:17.749Z,1.01
2017-10-31T02:00:45.220Z,1.00
2017-10-31T02:03:12.661Z,1.05
2017-10-31T02:05:40.151Z,1.14
2017-10-31T02:08:07.610Z,1.30
2017-10-31T02:10:35.061Z,1.39
2017-10-31T02:13:02.661Z,1.60
2017-10-31T02:15:30.125Z,1.40
2017-10-31T02:17:57.602Z,1.35
2017-10-31T02:20:25.061Z,1.40
2017-10-31T02:22:52.532Z,1.41
2017-10-31T02:25:19.993Z,1.40
2017-10-31T02:27:47.462Z,1.20
2017-10-31T02:30:14.898Z,1.05
2017-10-31T02:32:42.348Z,1.07
2017-10-31T02:35:09.832Z,0.94
2017-10-31T02:37:37.296Z,1.01
2017-10-31T02:40:04.728Z,0.98
2017-10-31T02:42:32.195Z,1.17
2017-10-31T02:44:59.645Z,1.16
2017-10-31T02:47:27.098Z,1.04
2017-10-31T02:49:54.554Z,0.97
2017-10-31T02:52:22.113Z,1.00
2017-10-31T02:54:49.574Z,0.99
2017-10-31T02:57:17.040Z,1.00
2017-10-31T02:59:44.574Z,0.98
2017-10-31T03:02:12.025Z,0.87
2017-10-31T03:04:39.490Z,0.81
2017-10-31T03:07:06.960Z,0.80
2017-10-31T03:09:34.509Z,0.82
2017-10-31T03:12:01.958Z,0.81
2017-10-31T03:14:29.427Z,0.76
2017-10-31T03:16:56.867Z,0.87
2017-10-31T03:19:24.323Z,0.80
2017-10-31T03:21:51.749Z,0.78
2017-10-31T03:24:19.216Z,0.65
2017-10-31T03:26:46.686Z,0.71
2017-10-31T03:29:14.142Z,0.67
2017-10-31T03:31:41.569Z,0.70
2017-10-31T03:34:09.019Z,0.58
2017-10-31T03:36:36.454Z,0.57
2017-10-31T03:39:03.910Z,0.61
2017-10-31T03:41:31.447Z,0.55
2017-10-31T03:43:58.904Z,0.58
2017-10-31T03:46:26.340Z,0.65
2017-10-31T03:48:53.797Z,0.50
2017-10-31T03:51:21.239Z,0.58
2017-10-31T03:53:48.708Z,0.60
2017-10-31T03:56:16.148Z,0.62
2017-10-31T03:58:43.622Z,0.53
2017-10-31T04:01:11.064Z,0.59
2017-10-31T04:03:38.515Z,0.63
2017-10-31T04:06:05.974Z,0.53
2017-10-31T04:08:33.433Z,0.28
2017-10-31T04:11:00.894Z,0.41
2017-10-31T04:13:28.342Z,0.50
2017-10-31T04:15:55.815Z,0.35
2017-10-31T04:18:23.256Z,0.49
2017-10-31T04:20:50.731Z,0.57
2017-10-31T04:23:18.165Z,0.39
2017-10-31T04:25:45.649Z,0.37
2017-10-31T04:28:13.120Z,0.54
2017-10-31T04:30:40.628Z,0.45
2017-10-31T04:33:08.138Z,0.51
2017-10-31T04:35:35.694Z,0.39
2017-10-31T04:38:03.146Z,0.53
2017-10-31T04:40:30.573Z,0.48
2017-10-31T04:42:58.041Z,0.35
2017-10-31T04:45:25.474Z,0.42
2017-10-31T04:47:52.951Z,0.51
2017-10-31T04:50:20.395Z,0.52
2017-10-31T04:52:47.874Z,0.33
2017-10-31T04:55:15.330Z,0.37
2017-10-31T04:57:42.808Z,0.36
2017-10-31T05:00:10.352Z,0.32
2017-10-31T05:02:37.778Z,0.26
2017-10-31T05:05:05.249Z,0.31
2017-10-31T05:07:32.684Z,0.25
2017-10-31T05:10:00.141Z,0.28
2017-10-31T05:12:27.584Z,0.23
2017-10-31T05:14:55.095Z,-0.01
2017-10-31T05:17:22.541Z,-0.06
2017-10-31T05:19:50.010Z,-0.07
2017-10-31T05:22:17.441Z,0.02
2017-10-31T05:24:44.898Z,0.15
2017-10-31T05:27:12.336Z,0.31
2017-10-31T05:29:40.064Z,0.41
2017-10-31T05:32:07.494Z,0.36
2017-10-31T05:34:34.962Z,0.32
2017-10-31T05:37:02.394Z,0.29
2017-10-31T05:39:29.866Z,0.22
2017-10-31T05:41:57.326Z,0.28
2017-10-31T05:44:24.766Z,0.15
2017-10-31T05:46:52.244Z,0.13
2017-10-31T05:49:19.682Z,0.18
2017-10-31T05:51:47.143Z,0.22
2017-10-31T05:54:14.586Z,0.15
2017-10-31T05:56:42.039Z,0.13
2017-10-31T05:59:09.514Z,0.14
2017-10-31T06:01:36.966Z,0.19
2017-10-31T06:04:04.439Z,0.24
2017-10-31T06:06:31.908Z,0.18
2017-10-31T06:08:59.347Z,0.25
2017-10-31T06:11:26.820Z,0.26
2017-10-31T06:13:54.257Z,0.26
2017-10-31T06:16:21.725Z,0.21
2017-10-31T06:18:49.153Z,0.18
2017-10-31T06:21:16.626Z,0.31
2017-10-31T06:26:50.594Z,0.20
2017-10-31T06:29:23.777Z,0.18
2017-10-31T06:32:12.185Z,0.25
2017-10-31T06:34:39.630Z,0.28
2017-10-31T06:37:07.099Z,0.28
2017-10-31T06:39:34.583Z,0.39
2017-10-31T06:42:02.024Z,0.47
2017-10-31T06:44:29.598Z,0.43
2017-10-31T06:46:57.044Z,0.52
2017-10-31T06:49:24.531Z,0.72
2017-10-31T06:51:51.996Z,0.86
2017-10-31T06:54:19.497Z,1.02
2017-10-31T06:56:46.939Z,1.05
2017-10-31T06:59:14.386Z,1.16
2017-10-31T07:01:41.818Z,1.11
2017-10-31T07:04:09.290Z,1.19
2017-10-31T07:06:36.746Z,1.18
2017-10-31T07:09:04.217Z,1.24
2017-10-31T07:11:31.650Z,1.39
2017-10-31T07:13:59.089Z,1.36
2017-10-31T07:16:26.580Z,1.47
2017-10-31T07:18:54.027Z,1.53
2017-10-31T07:21:21.505Z,1.47
2017-10-31T07:23:48.934Z,1.66
2017-10-31T07:26:16.412Z,1.68
2017-10-31T07:28:43.866Z,1.80
2017-10-31T07:31:11.336Z,1.99
2017-10-31T07:33:38.820Z,2.13
2017-10-31T07:36:06.308Z,2.30
2017-10-31T07:38:33.756Z,2.40
2017-10-31T07:41:01.279Z,2.44
2017-10-31T07:43:28.715Z,2.49
2017-10-31T07:45:56.229Z,2.50
2017-10-31T07:48:23.663Z,2.67
2017-10-31T07:50:51.140Z,2.78
2017-10-31T07:53:18.585Z,2.87
2017-10-31T07:55:46.039Z,3.03
2017-10-31T07:58:13.588Z,3.13
2017-10-31T08:00:41.054Z,3.25
2017-10-31T08:03:08.528Z,3.13
2017-10-31T08:05:35.988Z,3.56
2017-10-31T08:08:03.469Z,3.47
2017-10-31T08:10:30.961Z,3.53
2017-10-31T08:12:58.447Z,3.81
2017-10-31T08:15:25.908Z,3.63
2017-10-31T08:17:53.410Z,3.42
2017-10-31T08:20:20.859Z,3.44
2017-10-31T08:22:48.329Z,3.54
2017-10-31T08:25:15.774Z,3.56
2017-10-31T08:27:43.629Z,3.64
2017-10-31T08:30:11.101Z,3.74
2017-10-31T08:32:38.647Z,3.77
2017-10-31T08:35:06.102Z,3.81
2017-10-31T08:37:33.574Z,3.85
2017-10-31T08:40:01.019Z,3.97
2017-10-31T08:42:28.487Z,4.10
2017-10-31T08:44:55.955Z,4.31
2017-10-31T08:47:23.437Z,4.50
2017-10-31T08:49:50.894Z,4.58
2017-10-31T08:52:18.366Z,4.64
2017-10-31T08:54:45.821Z,4.81
2017-10-31T08:57:13.260Z,4.97
2017-10-31T08:59:42.574Z,5.05
2017-10-31T09:02:10.026Z,5.11
2017-10-31T09:04:37.501Z,5.30
2017-10-31T09:07:04.941Z,5.47
2017-10-31T09:09:32.437Z,5.37
2017-10-31T09:11:59.939Z,5.73
2017-10-31T09:14:27.395Z,5.85
2017-10-31T09:16:54.840Z,5.91
2017-10-31T09:19:22.299Z,6.02
2017-10-31T09:21:49.767Z,6.25
2017-10-31T09:24:17.197Z,6.40
2017-10-31T09:26:44.693Z,6.26
2017-10-31T09:29:12.231Z,6.31
2017-10-31T09:31:39.803Z,6.53
2017-10-31T09:34:07.255Z,6.60
2017-10-31T09:36:34.739Z,6.88
2017-10-31T09:39:02.182Z,6.64
2017-10-31T09:41:29.638Z,6.77
2017-10-31T09:43:57.096Z,6.64
2017-10-31T09:46:24.630Z,6.98
2017-10-31T09:48:52.064Z,6.79
2017-10-31T09:51:19.542Z,6.81
2017-10-31T09:53:46.989Z,6.81
2017-10-31T09:56:14.451Z,6.91
2017-10-31T09:58:41.899Z,6.99
2017-10-31T10:01:09.338Z,6.87
2017-10-31T10:03:36.790Z,6.95
2017-10-31T10:06:04.230Z,6.88
2017-10-31T10:08:31.758Z,7.13
2017-10-31T10:10:59.197Z,7.67
2017-10-31T10:13:26.674Z,7.18
2017-10-31T10:15:54.148Z,7.31
2017-10-31T10:18:21.598Z,7.30
2017-10-31T10:20:49.042Z,7.28
2017-10-31T10:23:16.561Z,7.42
2017-10-31T10:25:44.020Z,7.57
2017-10-31T10:28:11.469Z,7.80
2017-10-31T10:30:38.909Z,7.78
2017-10-31T10:33:06.420Z,7.80
2017-10-31T10:35:33.928Z,7.70
2017-10-31T10:38:01.697Z,7.60
2017-10-31T10:40:29.199Z,7.84
2017-10-31T10:42:56.642Z,7.94
2017-10-31T10:45:24.469Z,8.07
2017-10-31T10:47:51.942Z,8.41
2017-10-31T10:50:19.407Z,8.64
2017-10-31T10:52:46.850Z,8.74
2017-10-31T10:55:14.306Z,9.09
2017-10-31T10:57:41.741Z,8.90
2017-10-31T11:00:09.198Z,9.12
2017-10-31T11:02:36.673Z,9.03
2017-10-31T11:05:04.153Z,9.41
2017-10-31T11:07:31.618Z,9.59
2017-10-31T11:09:59.059Z,9.70
2017-10-31T11:12:26.521Z,9.73
2017-10-31T11:14:53.958Z,9.93
2017-10-31T11:17:21.425Z,9.97
2017-10-31T11:19:48.870Z,9.91
2017-10-31T11:22:16.329Z,10.20
2017-10-31T11:24:43.782Z,10.32
2017-10-31T11:27:11.253Z,10.21
2017-10-31T11:29:38.686Z,10.39
2017-10-31T11:32:06.177Z,10.77
2017-10-31T11:34:33.635Z,10.65
2017-10-31T11:37:01.069Z,10.76
2017-10-31T11:39:28.561Z,10.48
2017-10-31T11:41:56.008Z,10.38
2017-10-31T11:44:23.566Z,10.59
2017-10-31T11:46:51.001Z,10.62
2017-10-31T11:49:18.486Z,10.54
2017-10-31T11:51:45.927Z,10.89
2017-10-31T11:54:13.486Z,10.85
2017-10-31T11:56:40.942Z,11.06
2017-10-31T11:59:08.575Z,10.83
2017-10-31T12:01:36.011Z,10.98
2017-10-31T12:04:03.446Z,11.29
2017-10-31T12:06:30.907Z,11.29
2017-10-31T12:08:58.433Z,11.25
2017-10-31T12:11:25.902Z,11.13
2017-10-31T12:13:53.411Z,11.31
2017-10-31T12:16:20.867Z,11.15
2017-10-31T12:18:48.306Z,11.36
2017-10-31T12:21:15.835Z,11.48
2017-10-31T12:23:43.299Z,11.32
2017-10-31T12:26:10.762Z,11.38
2017-10-31T12:28:38.202Z,11.67
2017-10-31T12:31:05.661Z,11.35
2017-10-31T12:33:33.137Z,11.34
2017-10-31T12:36:00.626Z,11.34
2017-10-31T12:38:28.082Z,11.16
2017-10-31T12:40:55.557Z,11.44
2017-10-31T12:43:22.994Z,11.61
2017-10-31T12:45:50.458Z,11.33
2017-10-31T12:48:17.929Z,11.30
2017-10-31T12:50:45.381Z,11.30
2017-10-31T12:53:12.847Z,11.42
2017-10-31T12:55:40.311Z,11.56
2017-10-31T12:58:07.874Z,11.58
2017-10-31T13:00:35.315Z,11.76
2017-10-31T13:03:02.792Z,11.83
2017-10-31T13:05:30.249Z,11.99
2017-10-31T13:07:57.721Z,11.75
2017-10-31T13:10:25.269Z,11.75
2017-10-31T13:12:52.723Z,12.08
2017-10-31T13:15:20.157Z,11.89
2017-10-31T13:17:47.625Z,12.21
2017-10-31T13:20:15.064Z,11.95
2017-10-31T13:22:42.559Z,11.64
2017-10-31T13:25:10.008Z,11.59
2017-10-31T13:27:38.170Z,11.65
2017-10-31T13:30:06.520Z,11.88
2017-10-31T13:32:34.876Z,11.92
2017-10-31T13:35:03.241Z,12.01
2017-10-31T13:37:31.414Z,11.83
2017-10-31T13:39:59.707Z,11.89
2017-10-31T13:42:27.963Z,11.99
2017-10-31T13:44:55.422Z,12.16
2017-10-31T13:47:23.808Z,12.41
2017-10-31T13:49:51.364Z,12.22
2017-10-31T13:52:19.668Z,12.22
2017-10-31T13:54:47.144Z,11.86
2017-10-31T13:57:14.593Z,11.94
2017-10-31T13:59:42.068Z,12.05
2017-10-31T14:02:10.065Z,12.06
2017-10-31T14:04:38.446Z,12.17
2017-10-31T14:07:06.277Z,12.26
2017-10-31T14:09:34.692Z,12.30
2017-10-31T14:12:02.991Z,12.29
2017-10-31T14:14:30.490Z,12.09
2017-10-31T14:16:57.976Z,12.24
2017-10-31T14:19:26.269Z,12.17
2017-10-31T14:21:54.563Z,12.17
2017-10-31T14:24:22.005Z,12.10
2017-10-31T14:26:49.515Z,12.19
2017-10-31T14:29:16.973Z,12.24
2017-10-31T14:31:44.425Z,11.83
2017-10-31T14:34:11.876Z,11.69
2017-10-31T14:36:39.330Z,11.82
2017-10-31T14:39:06.776Z,11.94
2017-10-31T14:41:34.258Z,12.02
2017-10-31T14:44:01.691Z,12.03
2017-10-31T14:46:29.166Z,12.00
2017-10-31T14:48:56.610Z,11.96
2017-10-31T14:51:24.046Z,11.91
2017-10-31T14:53:51.503Z,11.74
2017-10-31T14:56:18.973Z,11.73
2017-10-31T14:58:46.467Z,11.73
2017-10-31T15:01:13.902Z,11.59
2017-10-31T15:03:41.476Z,11.38
2017-10-31T15:06:08.913Z,11.28
2017-10-31T15:08:36.392Z,11.34
2017-10-31T15:11:03.834Z,11.36
2017-10-31T15:13:31.298Z,11.31
2017-10-31T15:15:58.735Z,11.29
2017-10-31T15:18:26.203Z,11.26
2017-10-31T15:20:53.648Z,11.18
2017-10-31T15:23:21.114Z,11.22
2017-10-31T15:25:48.569Z,11.15
2017-10-31T15:28:16.013Z,11.11
2017-10-31T15:30:43.470Z,10.93
2017-10-31T15:33:10.913Z,10.89
2017-10-31T15:35:38.382Z,10.98
2017-10-31T15:38:05.871Z,11.04
2017-10-31T15:40:33.341Z,11.03
2017-10-31T15:43:00.778Z,10.97
2017-10-31T15:45:28.361Z,10.87
2017-10-31T15:47:55.797Z,10.71
2017-10-31T15:50:23.254Z,10.78
2017-10-31T15:52:50.693Z,10.58
2017-10-31T15:55:18.171Z,10.57
2017-10-31T15:57:45.627Z,10.60
2017-10-31T16:00:13.112Z,10.52
2017-10-31T16:02:40.621Z,10.49
2017-10-31T16:05:08.055Z,10.39
2017-10-31T16:07:35.603Z,10.21
2017-10-31T16:10:03.052Z,10.08
2017-10-31T16:12:30.554Z,10.07
2017-10-31T16:14:58.015Z,10.06
2017-10-31T16:17:25.602Z,10.06
2017-10-31T16:19:53.112Z,10.04
2017-10-31T16:22:20.604Z,9.96
2017-10-31T16:24:48.079Z,9.87
2017-10-31T16:27:15.590Z,9.93
2017-10-31T16:29:43.051Z,9.99
2017-10-31T16:32:10.549Z,9.96
2017-10-31T16:34:38.069Z,9.92
2017-10-31T16:37:05.534Z,9.97
2017-10-31T16:39:32.977Z,9.90
2017-10-31T16:42:00.410Z,9.78
2017-10-31T16:44:27.902Z,9.66
2017-10-31T16:46:55.353Z,9.63
2017-10-31T16:49:22.914Z,9.55
2017-10-31T16:51:50.371Z,9.58
2017-10-31T16:54:17.859Z,9.35
2017-10-31T16:56:45.287Z,9.27
2017-10-31T16:59:13.045Z,9.26
2017-10-31T17:01:40.602Z,9.22
2017-10-31T17:04:08.058Z,9.26
2017-10-31T17:06:35.514Z,9.14
2017-10-31T17:09:03.446Z,9.09
2017-10-31T17:11:30.930Z,9.19
2017-10-31T17:13:58.382Z,9.17
2017-10-31T17:16:25.810Z,9.10
2017-10-31T17:18:53.352Z,9.11
2017-10-31T17:21:20.791Z,9.18
2017-10-31T17:23:48.340Z,9.15
2017-10-31T17:26:15.783Z,9.05
2017-10-31T17:28:43.235Z,9.08
2017-10-31T17:31:10.691Z,9.11
2017-10-31T17:33:38.128Z,9.00
2017-10-31T17:36:05.654Z,8.91
2017-10-31T17:38:33.105Z,8.84
2017-10-31T17:41:00.558Z,8.81
2017-10-31T17:43:28.003Z,8.82
2017-10-31T17:45:55.545Z,8.75
2017-10-31T17:48:22.998Z,8.77
2017-10-31T17:50:50.500Z,8.74
2017-10-31T17:53:17.934Z,8.90
2017-10-31T17:55:45.394Z,9.05
2017-10-31T17:58:12.837Z,9.07
2017-10-31T18:00:40.321Z,9.12
2017-10-31T18:03:07.864Z,9.21
2017-10-31T18:05:35.312Z,9.20
2017-10-31T18:08:02.788Z,9.26
2017-10-31T18:10:30.230Z,9.28
2017-10-31T18:12:57.709Z,9.38
2017-10-31T18:15:25.245Z,9.27
2017-10-31T18:17:52.778Z,9.27
2017-10-31T18:20:20.252Z,9.28
2017-10-31T18:22:47.721Z,9.20
2017-10-31T18:25:15.166Z,9.18
2017-10-31T18:27:42.620Z,9.05
2017-10-31T18:30:10.186Z,9.01
2017-10-31T18:32:37.646Z,9.16
2017-10-31T18:35:05.086Z,9.12
2017-10-31T18:37:32.574Z,9.08
2017-10-31T18:40:00.028Z,9.00
2017-10-31T18:42:27.557Z,9.10
2017-10-31T18:44:55.009Z,9.14
2017-10-31T18:47:22.445Z,9.28
2017-10-31T18:49:49.904Z,9.29
2017-10-31T18:52:17.365Z,9.30
2017-10-31T18:54:44.821Z,9.33
2017-10-31T18:57:12.255Z,9.38
2017-10-31T18:59:39.744Z,9.38
2017-10-31T19:02:07.700Z,9.33
2017-10-31T19:04:35.167Z,9.38
2017-10-31T19:07:02.596Z,9.42
2017-10-31T19:09:30.056Z,9.42
2017-10-31T19:11:57.496Z,9.39
2017-10-31T19:14:24.955Z,9.33
2017-10-31T19:16:52.451Z,9.34
2017-10-31T19:19:19.905Z,9.38
2017-10-31T19:21:47.333Z,9.40
2017-10-31T19:24:14.835Z,9.38
2017-10-31T19:26:42.305Z,9.40
2017-10-31T19:29:09.770Z,9.49
2017-10-31T19:31:37.207Z,9.46
2017-10-31T19:34:04.678Z,9.50
2017-10-31T19:36:32.114Z,9.54
2017-10-31T19:38:59.581Z,9.50
2017-10-31T19:41:27.139Z,9.43
2017-10-31T19:43:54.639Z,9.40
2017-10-31T19:46:22.078Z,9.33
2017-10-31T19:48:49.595Z,9.34
2017-10-31T19:51:17.055Z,9.27
2017-10-31T19:53:44.501Z,9.28
2017-10-31T19:56:11.968Z,9.26
2017-10-31T19:58:39.435Z,9.35
2017-10-31T20:01:06.908Z,9.39
2017-10-31T20:03:34.342Z,9.42
2017-10-31T20:06:01.893Z,9.48
2017-10-31T20:08:29.342Z,9.29
2017-10-31T20:10:56.802Z,9.37
2017-10-31T20:13:24.326Z,9.46
2017-10-31T20:15:51.778Z,9.43
2017-10-31T20:18:19.225Z,9.48
2017-10-31T20:20:46.695Z,9.40
2017-10-31T20:23:14.166Z,9.44
2017-10-31T20:25:41.626Z,9.45
2017-10-31T20:28:09.068Z,9.37
2017-10-31T20:30:36.574Z,9.40
2017-10-31T20:33:04.068Z,9.43
2017-10-31T20:35:31.570Z,9.36
2017-10-31T20:37:59.035Z,9.32
2017-10-31T20:40:26.483Z,9.29
2017-10-31T20:42:53.949Z,9.44
2017-10-31T20:45:21.384Z,9.39
2017-10-31T20:47:48.845Z,9.40
2017-10-31T20:50:16.313Z,9.46
2017-10-31T20:52:43.793Z,9.45
2017-10-31T20:55:11.250Z,9.33
2017-10-31T20:57:38.714Z,9.31
2017-10-31T21:00:06.168Z,9.31
2017-10-31T21:02:33.654Z,9.42
2017-10-31T21:05:01.098Z,9.41
2017-10-31T21:07:28.624Z,9.32
2017-10-31T21:09:56.086Z,9.24
2017-10-31T21:12:23.634Z,9.19
2017-10-31T21:14:51.113Z,9.15
2017-10-31T21:17:18.554Z,9.17
2017-10-31T21:19:46.062Z,9.23
2017-10-31T21:22:13.643Z,9.20
2017-10-31T21:24:41.099Z,9.21
2017-10-31T21:27:08.542Z,9.26
2017-10-31T21:29:36.026Z,9.30
2017-10-31T21:32:03.492Z,9.39
2017-10-31T21:34:30.996Z,9.28
2017-10-31T21:36:58.432Z,9.24
2017-10-31T21:39:25.893Z,9.28
2017-10-31T21:41:53.377Z,9.25
2017-10-31T21:44:20.834Z,9.19
2017-10-31T21:46:48.304Z,9.18
2017-10-31T21:49:15.893Z,9.26
2017-10-31T21:51:43.340Z,9.26
2017-10-31T21:54:10.795Z,9.26
2017-10-31T21:56:38.354Z,9.26
2017-10-31T21:59:05.794Z,9.26
2017-10-31T22:01:33.289Z,9.16
2017-10-31T22:04:00.718Z,9.04
2017-10-31T22:06:28.185Z,9.02
2017-10-31T22:08:55.684Z,8.93
2017-10-31T22:11:23.141Z,8.97
2017-10-31T22:13:50.668Z,8.89
2017-10-31T22:16:18.131Z,8.73
2017-10-31T22:18:45.661Z,8.71
2017-10-31T22:21:13.117Z,8.74
2017-10-31T22:23:40.591Z,8.69
2017-10-31T22:26:08.134Z,8.78
2017-10-31T22:28:35.596Z,8.77
2017-10-31T22:31:03.047Z,8.87
2017-10-31T22:33:30.617Z,8.92
2017-10-31T22:35:58.084Z,8.92
2017-10-31T22:38:25.542Z,8.96
2017-10-31T22:40:52.977Z,9.01
2017-10-31T22:43:20.544Z,8.96
2017-10-31T22:45:47.976Z,8.99
2017-10-31T22:48:15.447Z,8.95
2017-10-31T22:50:42.911Z,9.00
2017-10-31T22:53:10.366Z,9.03
2017-10-31T22:55:37.799Z,8.96
2017-10-31T22:58:05.273Z,8.99
2017-10-31T23:00:32.706Z,8.86
2017-10-31T23:03:00.194Z,8.86
2017-10-31T23:05:27.633Z,8.81
2017-10-31T23:07:55.100Z,8.81
2017-10-31T23:10:22.530Z,8.86
2017-10-31T23:12:49.960Z,8.88
2017-10-31T23:15:17.434Z,8.90
2017-10-31T23:17:44.945Z,8.92
2017-10-31T23:20:12.481Z,8.89
2017-10-31T23:22:39.925Z,8.97
2017-10-31T23:25:07.389Z,8.93
2017-10-31T23:27:34.818Z,8.92
2017-10-31T23:30:02.324Z,9.01
2017-10-31T23:32:29.755Z,9.11
2017-10-31T23:34:57.222Z,9.19
2017-10-31T23:37:24.667Z,9.25
2017-10-31T23:39:52.123Z,9.30
2017-10-31T23:42:19.557Z,9.25
2017-10-31T23:44:47.021Z,9.32
2017-10-31T23:47:14.454Z,9.32
2017-10-31T23:49:41.906Z,9.34
2017-10-31T23:52:09.423Z,9.40
2017-10-31T23:54:36.997Z,9.29
2017-10-31T23:57:04.456Z,9.26
2017-10-31T23:59:31.998Z,9.23
